createdAt,value
2019-03-29T00:00:33.931Z,64.58
2019-03-29T00:03:02.245Z,63.33
2019-03-29T00:05:30.569Z,63.40
2019-03-29T00:07:58.910Z,62.17
2019-03-29T00:10:27.194Z,60.83
2019-03-29T00:12:55.481Z,59.58
2019-03-29T00:15:23.740Z,61.03
2019-03-29T00:17:51.988Z,64.05
2019-03-29T00:20:20.429Z,57.33
2019-03-29T00:22:48.685Z,60.03
2019-03-29T00:25:16.959Z,66.40
2019-03-29T00:27:45.253Z,60.75
2019-03-29T00:30:13.517Z,60.13
2019-03-29T00:32:41.761Z,61.40
2019-03-29T00:35:10.058Z,63.48
2019-03-29T00:37:38.357Z,66.25
2019-03-29T00:40:07.385Z,59.53
2019-03-29T00:42:35.676Z,62.05
2019-03-29T00:45:04.125Z,64.50
2019-03-29T00:47:32.481Z,70.10
2019-03-29T00:50:00.717Z,68.97
2019-03-29T00:52:29.037Z,71.20
2019-03-29T00:54:57.283Z,68.65
2019-03-29T00:57:25.550Z,66.67
2019-03-29T00:59:53.837Z,66.70
2019-03-29T01:02:22.109Z,66.67
2019-03-29T01:04:53.267Z,67.40
2019-03-29T01:07:21.557Z,70.70
2019-03-29T01:09:49.825Z,70.95
2019-03-29T01:12:18.073Z,79.85
2019-03-29T01:14:46.354Z,78.28
2019-03-29T01:17:14.709Z,81.97
2019-03-29T01:19:43.010Z,67.27
2019-03-29T01:22:11.280Z,68.40
2019-03-29T01:24:39.532Z,73.57
2019-03-29T01:27:07.830Z,66.80
2019-03-29T01:29:36.098Z,70.87
2019-03-29T01:32:04.348Z,69.87
2019-03-29T01:34:32.620Z,64.50
2019-03-29T01:37:00.868Z,65.28
2019-03-29T01:39:29.248Z,70.57
2019-03-29T01:41:57.526Z,66.45
2019-03-29T01:44:27.942Z,67.15
2019-03-29T01:46:55.859Z,63.75
2019-03-29T01:49:24.143Z,69.20
2019-03-29T01:51:53.295Z,64.67
2019-03-29T01:54:22.251Z,65.97
2019-03-29T01:56:50.521Z,63.08
2019-03-29T01:59:18.815Z,62.93
2019-03-29T02:01:48.132Z,64.75
2019-03-29T02:04:16.532Z,62.13
2019-03-29T02:06:45.088Z,62.67
2019-03-29T02:09:14.679Z,60.25
2019-03-29T02:11:42.910Z,62.43
2019-03-29T02:14:11.170Z,58.63
2019-03-29T02:16:39.429Z,60.45
2019-03-29T02:19:07.717Z,56.77
2019-03-29T02:21:35.973Z,58.85
2019-03-29T02:24:04.241Z,56.23
2019-03-29T02:26:32.494Z,60.98
2019-03-29T02:29:00.779Z,61.42
2019-03-29T02:31:29.297Z,63.08
2019-03-29T02:33:57.627Z,67.92
2019-03-29T02:36:26.000Z,61.35
2019-03-29T02:38:56.244Z,59.55
2019-03-29T02:41:24.325Z,72.40
2019-03-29T02:43:52.686Z,64.12
2019-03-29T02:46:20.934Z,56.68
2019-03-29T02:48:50.570Z,60.92
2019-03-29T02:51:18.889Z,58.73
2019-03-29T02:53:47.139Z,58.20
2019-03-29T02:56:15.406Z,61.90
2019-03-29T02:58:43.667Z,59.98
2019-03-29T03:01:11.963Z,61.70
2019-03-29T03:03:40.226Z,59.45
2019-03-29T03:06:08.473Z,56.60
2019-03-29T03:08:36.691Z,56.02
2019-03-29T03:11:05.889Z,59.40
2019-03-29T03:13:34.150Z,59.33
2019-03-29T03:16:02.444Z,64.70
2019-03-29T03:18:30.692Z,60.28
2019-03-29T03:20:59.003Z,62.60
2019-03-29T03:23:27.289Z,62.62
2019-03-29T03:25:55.590Z,63.73
2019-03-29T03:28:23.923Z,58.42
2019-03-29T03:30:52.224Z,62.50
2019-03-29T03:33:20.518Z,62.55
2019-03-29T03:35:48.890Z,57.70
2019-03-29T03:38:17.129Z,61.28
2019-03-29T03:40:45.394Z,57.35
2019-03-29T03:43:13.634Z,62.08
2019-03-29T03:45:41.867Z,61.98
2019-03-29T03:48:10.150Z,55.63
2019-03-29T03:50:39.059Z,57.73
2019-03-29T03:53:07.309Z,62.83
2019-03-29T03:55:36.686Z,61.05
2019-03-29T03:58:05.087Z,59.20
2019-03-29T04:00:44.061Z,59.80
2019-03-29T04:03:12.557Z,58.87
2019-03-29T04:05:40.910Z,62.23
2019-03-29T04:08:09.237Z,58.30
2019-03-29T04:10:41.930Z,59.83
2019-03-29T04:13:07.553Z,55.52
2019-03-29T04:15:35.835Z,59.23
2019-03-29T04:18:04.125Z,63.73
2019-03-29T04:20:32.450Z,63.00
2019-03-29T04:23:00.790Z,63.95
2019-03-29T04:25:29.142Z,64.80
2019-03-29T04:27:57.431Z,66.60
2019-03-29T04:30:25.800Z,64.35
2019-03-29T04:32:54.133Z,58.25
2019-03-29T04:35:22.413Z,65.47
2019-03-29T04:37:50.851Z,67.55
2019-03-29T04:40:19.116Z,63.65
2019-03-29T04:42:47.436Z,62.27
2019-03-29T04:45:15.769Z,66.23
2019-03-29T04:47:44.002Z,64.42
2019-03-29T04:50:12.393Z,65.85
2019-03-29T04:52:40.648Z,64.72
2019-03-29T04:55:09.035Z,67.62
2019-03-29T04:57:37.336Z,66.17
2019-03-29T05:00:05.913Z,61.23
2019-03-29T05:02:34.151Z,64.27
2019-03-29T05:05:02.507Z,64.70
2019-03-29T05:07:30.747Z,70.55
2019-03-29T05:09:59.047Z,71.00
2019-03-29T05:12:27.365Z,73.20
2019-03-29T05:14:55.681Z,71.87
2019-03-29T05:17:23.965Z,71.42
2019-03-29T05:19:52.297Z,71.50
2019-03-29T05:22:20.574Z,65.95
2019-03-29T05:24:48.848Z,73.67
2019-03-29T05:27:17.196Z,70.52
2019-03-29T05:29:45.463Z,75.87
2019-03-29T05:32:13.800Z,72.40
2019-03-29T05:34:42.126Z,72.10
2019-03-29T05:37:10.398Z,70.30
2019-03-29T05:39:38.666Z,71.05
2019-03-29T05:42:06.958Z,69.72
2019-03-29T05:44:35.265Z,62.43
2019-03-29T05:47:03.612Z,65.17
2019-03-29T05:49:31.886Z,64.22
2019-03-29T05:52:00.235Z,64.55
2019-03-29T05:54:28.510Z,63.25
2019-03-29T05:56:56.770Z,62.88
2019-03-29T05:59:25.098Z,68.90
2019-03-29T06:01:53.381Z,62.48
2019-03-29T06:04:21.691Z,62.10
2019-03-29T06:06:50.015Z,64.72
2019-03-29T06:09:18.282Z,61.23
2019-03-29T06:11:46.537Z,67.17
2019-03-29T06:14:14.893Z,67.37
2019-03-29T06:16:43.157Z,61.30
2019-03-29T06:19:11.425Z,65.10
2019-03-29T06:32:06.169Z,57.08
2019-03-29T06:34:47.865Z,58.30
2019-03-29T06:37:38.361Z,60.00
2019-03-29T06:40:26.498Z,61.65
2019-03-29T06:43:19.683Z,58.63
2019-03-29T06:52:44.724Z,57.65
2019-03-29T06:56:03.008Z,58.33
2019-03-29T06:57:46.159Z,58.63
2019-03-29T07:00:14.574Z,58.90
2019-03-29T07:02:42.965Z,56.15
2019-03-29T07:05:11.317Z,51.90
2019-03-29T07:07:39.609Z,49.98
2019-03-29T07:10:07.865Z,50.43
2019-03-29T07:12:36.143Z,46.60
2019-03-29T07:15:04.613Z,53.15
2019-03-29T07:17:32.879Z,48.85
2019-03-29T07:20:01.180Z,52.40
2019-03-29T07:22:29.528Z,48.65
2019-03-29T07:24:57.855Z,48.90
2019-03-29T07:27:26.090Z,44.58
2019-03-29T07:29:54.390Z,44.35
2019-03-29T07:32:22.751Z,44.40
2019-03-29T07:34:51.093Z,42.55
2019-03-29T07:37:19.441Z,44.10
2019-03-29T07:39:47.732Z,43.20
2019-03-29T07:42:16.043Z,39.65
2019-03-29T07:44:44.364Z,31.23
2019-03-29T07:47:12.753Z,34.30
2019-03-29T07:49:41.059Z,31.68
2019-03-29T07:52:09.361Z,31.68
2019-03-29T07:54:37.629Z,28.95
2019-03-29T07:57:05.951Z,29.55
2019-03-29T07:59:34.282Z,29.63
2019-03-29T08:02:02.816Z,29.25
2019-03-29T08:04:31.085Z,26.75
2019-03-29T08:06:59.432Z,24.30
2019-03-29T08:09:27.755Z,26.15
2019-03-29T08:11:56.159Z,24.52
2019-03-29T08:14:24.423Z,25.80
2019-03-29T08:16:53.000Z,21.50
2019-03-29T08:19:21.348Z,23.35
2019-03-29T08:21:49.643Z,25.68
2019-03-29T08:24:17.971Z,22.67
2019-03-29T08:26:46.258Z,22.50
2019-03-29T08:29:14.572Z,22.73
2019-03-29T08:31:42.871Z,20.62
2019-03-29T08:34:11.148Z,22.27
2019-03-29T08:36:39.460Z,21.90
2019-03-29T08:39:10.203Z,19.60
2019-03-29T08:41:37.758Z,21.82
2019-03-29T08:44:06.077Z,20.92
2019-03-29T08:46:34.368Z,18.37
2019-03-29T08:49:02.731Z,20.80
2019-03-29T08:51:31.049Z,20.62
2019-03-29T08:53:59.448Z,21.80
2019-03-29T08:56:28.878Z,21.80
2019-03-29T08:58:57.224Z,22.00
2019-03-29T09:01:25.674Z,22.32
2019-03-29T09:04:04.855Z,22.30
2019-03-29T09:06:24.279Z,22.42
2019-03-29T09:08:52.685Z,20.92
2019-03-29T09:11:21.010Z,22.67
2019-03-29T09:13:49.290Z,19.65
2019-03-29T09:16:17.548Z,22.67
2019-03-29T09:18:45.851Z,21.00
2019-03-29T09:21:14.126Z,21.17
2019-03-29T09:23:42.410Z,19.48
2019-03-29T09:26:10.641Z,21.25
2019-03-29T09:28:38.881Z,18.20
2019-03-29T09:31:07.148Z,22.77
2019-03-29T09:33:35.520Z,20.02
2019-03-29T09:36:05.217Z,19.55
2019-03-29T09:38:33.801Z,20.17
2019-03-29T09:41:02.152Z,18.48
2019-03-29T09:43:30.444Z,19.80
2019-03-29T09:45:58.821Z,18.15
2019-03-29T09:48:27.104Z,19.27
2019-03-29T09:50:55.410Z,18.20
2019-03-29T09:53:23.689Z,16.93
2019-03-29T09:55:53.521Z,16.97
2019-03-29T09:58:22.081Z,19.95
2019-03-29T10:00:50.438Z,18.02
2019-03-29T10:03:18.701Z,15.45
2019-03-29T10:05:46.954Z,18.35
2019-03-29T10:08:15.225Z,15.90
2019-03-29T10:10:43.675Z,15.13
2019-03-29T10:13:11.994Z,19.27
2019-03-29T10:15:40.258Z,15.88
2019-03-29T10:18:08.531Z,17.17
2019-03-29T10:20:36.852Z,15.80
2019-03-29T10:23:05.100Z,16.55
2019-03-29T10:25:33.364Z,15.65
2019-03-29T10:28:01.598Z,10.00
2019-03-29T10:30:46.214Z,11.43
2019-03-29T10:33:13.185Z,10.80
2019-03-29T10:35:51.496Z,10.80
2019-03-29T10:38:11.468Z,12.20
2019-03-29T10:40:39.877Z,11.22
2019-03-29T10:43:08.146Z,12.55
2019-03-29T10:45:40.067Z,12.63
2019-03-29T10:48:06.384Z,13.70
2019-03-29T10:50:34.627Z,12.30
2019-03-29T10:53:02.898Z,10.08
2019-03-29T10:55:31.132Z,9.38
2019-03-29T10:57:59.369Z,6.53
2019-03-29T11:00:33.237Z,7.85
2019-03-29T11:03:01.568Z,6.78
2019-03-29T11:05:29.810Z,11.35
2019-03-29T11:07:58.072Z,8.95
2019-03-29T11:10:30.899Z,9.85
2019-03-29T11:13:11.732Z,7.28
2019-03-29T11:15:29.251Z,9.58
2019-03-29T11:17:57.545Z,12.58
2019-03-29T11:20:25.784Z,10.60
2019-03-29T11:22:54.149Z,11.65
2019-03-29T11:25:22.386Z,11.03
2019-03-29T11:27:50.632Z,13.25
2019-03-29T11:30:18.867Z,15.43
2019-03-29T11:32:47.161Z,12.13
2019-03-29T11:35:15.456Z,15.10
2019-03-29T11:37:43.719Z,13.32
2019-03-29T11:40:12.101Z,16.35
2019-03-29T11:42:40.345Z,14.43
2019-03-29T11:45:08.691Z,14.25
2019-03-29T11:47:36.886Z,14.58
2019-03-29T11:50:05.143Z,12.68
2019-03-29T11:52:33.957Z,12.88
2019-03-29T11:55:02.392Z,12.85
2019-03-29T11:57:30.667Z,17.27
2019-03-29T11:59:59.026Z,13.13
2019-03-29T12:02:31.606Z,13.20
2019-03-29T12:04:57.230Z,15.88
2019-03-29T12:07:25.474Z,11.88
2019-03-29T12:09:53.746Z,10.98
2019-03-29T12:12:22.043Z,12.90
2019-03-29T12:14:50.313Z,13.50
2019-03-29T12:17:18.603Z,11.97
2019-03-29T12:19:46.839Z,11.95
2019-03-29T12:22:15.107Z,11.18
2019-03-29T12:24:43.375Z,11.20
2019-03-29T12:27:11.597Z,11.33
2019-03-29T12:29:39.834Z,9.53
2019-03-29T12:32:08.318Z,12.03
2019-03-29T12:34:36.548Z,12.03
2019-03-29T12:37:04.821Z,11.65
2019-03-29T12:39:33.051Z,10.45
2019-03-29T12:42:01.337Z,11.73
2019-03-29T12:44:29.591Z,9.65
2019-03-29T12:46:57.825Z,9.95
2019-03-29T12:49:26.086Z,9.38
2019-03-29T12:51:54.312Z,11.48
2019-03-29T12:54:22.552Z,10.85
2019-03-29T12:56:50.830Z,8.78
2019-03-29T12:59:19.072Z,7.60
2019-03-29T13:01:47.624Z,6.83
2019-03-29T13:04:15.863Z,9.30
2019-03-29T13:06:44.100Z,6.75
2019-03-29T13:09:12.343Z,9.43
2019-03-29T13:11:40.568Z,9.18
2019-03-29T13:14:10.636Z,7.30
2019-03-29T13:16:38.881Z,11.45
2019-03-29T13:19:07.134Z,10.72
2019-03-29T13:21:38.721Z,9.10
2019-03-29T13:24:05.307Z,8.78
2019-03-29T13:26:33.596Z,10.45
2019-03-29T13:29:01.838Z,10.50
2019-03-29T13:31:30.117Z,11.15
2019-03-29T13:33:58.345Z,10.10
2019-03-29T13:36:26.614Z,8.55
2019-03-29T13:38:54.837Z,15.43
2019-03-29T13:41:23.069Z,8.90
2019-03-29T13:43:51.441Z,9.05
2019-03-29T13:46:19.708Z,10.03
2019-03-29T13:48:48.005Z,11.55
2019-03-29T13:51:16.256Z,9.58
2019-03-29T13:53:44.601Z,10.58
2019-03-29T13:56:12.879Z,11.73
2019-03-29T13:58:41.135Z,9.95
2019-03-29T14:01:09.407Z,11.50
2019-03-29T14:03:37.987Z,9.75
2019-03-29T14:06:06.315Z,10.40
2019-03-29T14:08:34.594Z,11.10
2019-03-29T14:11:02.797Z,11.50
2019-03-29T14:13:31.073Z,11.12
2019-03-29T14:15:59.403Z,8.85
2019-03-29T14:18:27.696Z,11.97
2019-03-29T14:20:55.914Z,12.58
2019-03-29T14:23:24.185Z,9.18
2019-03-29T14:25:52.437Z,13.05
2019-03-29T14:28:20.718Z,8.68
2019-03-29T14:30:48.972Z,11.43
2019-03-29T14:33:17.281Z,9.53
2019-03-29T14:35:45.537Z,9.55
2019-03-29T14:38:13.780Z,12.55
2019-03-29T14:40:42.105Z,10.70
2019-03-29T14:43:10.312Z,7.95
2019-03-29T14:45:38.553Z,10.23
2019-03-29T14:48:06.825Z,9.45
2019-03-29T14:50:35.065Z,9.65
2019-03-29T14:53:03.319Z,7.67
2019-03-29T14:55:31.715Z,8.45
2019-03-29T14:57:59.944Z,9.50
2019-03-29T15:00:37.919Z,9.00
2019-03-29T15:03:06.231Z,8.00
2019-03-29T15:05:34.508Z,8.20
2019-03-29T15:08:02.766Z,7.72
2019-03-29T15:10:31.175Z,8.85
2019-03-29T15:12:59.496Z,8.85
2019-03-29T15:15:27.787Z,9.68
2019-03-29T15:17:56.035Z,7.85
2019-03-29T15:20:24.288Z,7.78
2019-03-29T15:22:52.557Z,10.72
2019-03-29T15:25:20.887Z,8.27
2019-03-29T15:27:49.146Z,7.75
2019-03-29T15:30:17.401Z,7.55
2019-03-29T15:32:45.762Z,8.88
2019-03-29T15:35:14.087Z,7.05
2019-03-29T15:37:42.349Z,9.00
2019-03-29T15:40:12.068Z,8.75
2019-03-29T15:42:40.283Z,7.25
2019-03-29T15:45:19.645Z,6.85
2019-03-29T15:47:40.395Z,7.97
2019-03-29T15:50:08.688Z,7.37
2019-03-29T15:52:37.007Z,9.53
2019-03-29T15:55:05.552Z,6.22
2019-03-29T15:57:33.842Z,7.83
2019-03-29T16:00:02.093Z,6.62
2019-03-29T16:02:30.515Z,7.37
2019-03-29T16:04:58.762Z,7.58
2019-03-29T16:07:27.001Z,7.40
2019-03-29T16:09:55.270Z,10.68
2019-03-29T16:12:23.620Z,9.70
2019-03-29T16:14:51.918Z,7.62
2019-03-29T16:17:20.172Z,7.30
2019-03-29T16:19:48.433Z,6.87
2019-03-29T16:22:16.725Z,6.72
2019-03-29T16:24:44.966Z,8.28
2019-03-29T16:27:13.230Z,7.53
2019-03-29T16:29:41.451Z,6.62
2019-03-29T16:32:09.745Z,6.65
2019-03-29T16:34:39.065Z,8.58
2019-03-29T16:37:07.354Z,7.08
2019-03-29T16:39:35.655Z,6.65
2019-03-29T16:42:03.932Z,7.53
2019-03-29T16:44:32.234Z,6.65
2019-03-29T16:47:00.612Z,6.92
2019-03-29T16:49:28.924Z,7.03
2019-03-29T16:51:57.194Z,6.03
2019-03-29T16:54:25.506Z,6.33
2019-03-29T16:56:53.783Z,5.70
2019-03-29T16:59:22.081Z,12.55
2019-03-29T17:01:51.431Z,7.62
2019-03-29T17:04:19.956Z,6.35
2019-03-29T17:06:48.232Z,6.15
2019-03-29T17:09:16.522Z,6.35
2019-03-29T17:11:44.730Z,6.70
2019-03-29T17:14:13.034Z,5.47
2019-03-29T17:16:41.361Z,7.30
2019-03-29T17:19:09.646Z,4.92
2019-03-29T17:21:39.344Z,5.30
2019-03-29T17:24:07.758Z,8.45
2019-03-29T17:26:36.021Z,6.83
2019-03-29T17:29:04.322Z,6.17
2019-03-29T17:31:34.661Z,4.95
2019-03-29T17:34:02.942Z,5.08
2019-03-29T17:36:34.030Z,6.20
2019-03-29T17:39:02.370Z,9.78
2019-03-29T17:41:37.405Z,7.00
2019-03-29T17:44:05.717Z,7.33
2019-03-29T17:46:34.156Z,7.80
2019-03-29T17:49:02.448Z,8.28
2019-03-29T17:51:33.568Z,12.07
2019-03-29T17:54:01.919Z,13.22
2019-03-29T17:56:30.172Z,10.90
2019-03-29T17:58:58.455Z,10.98
2019-03-29T18:01:26.798Z,12.47
2019-03-29T18:03:55.097Z,13.98
2019-03-29T18:06:23.466Z,14.75
2019-03-29T18:08:51.794Z,13.05
2019-03-29T18:11:20.146Z,16.25
2019-03-29T18:13:48.501Z,14.80
2019-03-29T18:16:30.102Z,14.23
2019-03-29T18:18:47.178Z,13.13
2019-03-29T18:21:15.521Z,13.85
2019-03-29T18:23:43.837Z,12.75
2019-03-29T18:26:12.236Z,14.85
2019-03-29T18:28:40.547Z,14.73
2019-03-29T18:31:08.908Z,15.10
2019-03-29T18:33:37.240Z,14.68
2019-03-29T18:36:05.822Z,16.65
2019-03-29T18:38:35.384Z,17.17
2019-03-29T18:41:03.636Z,15.63
2019-03-29T18:43:31.917Z,18.73
2019-03-29T18:46:00.280Z,14.33
2019-03-29T18:48:28.586Z,15.60
2019-03-29T18:50:56.820Z,16.85
2019-03-29T18:56:34.391Z,17.20
2019-03-29T18:59:02.704Z,19.35
2019-03-29T19:01:31.041Z,18.77
2019-03-29T19:03:59.440Z,17.85
2019-03-29T19:06:27.836Z,18.67
2019-03-29T19:08:56.164Z,18.10
2019-03-29T19:11:24.544Z,19.02
2019-03-29T19:13:52.901Z,18.82
2019-03-29T19:16:21.215Z,20.17
2019-03-29T19:18:49.537Z,22.05
2019-03-29T19:21:17.816Z,20.70
2019-03-29T19:23:46.112Z,20.02
2019-03-29T19:26:14.435Z,18.55
2019-03-29T19:28:42.818Z,18.07
2019-03-29T19:31:11.092Z,21.48
2019-03-29T19:33:39.524Z,21.75
2019-03-29T19:36:07.857Z,21.73
2019-03-29T19:38:36.153Z,19.92
2019-03-29T19:41:04.450Z,16.57
2019-03-29T19:43:32.772Z,17.20
2019-03-29T19:46:01.103Z,18.12
2019-03-29T19:48:29.468Z,17.92
2019-03-29T19:50:57.821Z,18.80
2019-03-29T19:53:26.125Z,16.42
2019-03-29T19:55:54.524Z,18.23
2019-03-29T19:58:22.845Z,19.48
2019-03-29T20:00:51.226Z,19.23
2019-03-29T20:03:19.647Z,19.35
2019-03-29T20:05:48.365Z,17.85
2019-03-29T20:08:16.688Z,25.62
2019-03-29T20:10:44.995Z,33.42
2019-03-29T20:13:13.301Z,18.75
2019-03-29T20:15:41.649Z,18.40
2019-03-29T20:18:10.018Z,22.85
2019-03-29T20:20:38.325Z,20.02
2019-03-29T20:23:06.595Z,20.43
2019-03-29T20:25:34.935Z,22.77
2019-03-29T20:28:03.265Z,22.10
2019-03-29T20:30:31.540Z,23.60
2019-03-29T20:32:59.831Z,20.72
2019-03-29T20:35:28.160Z,22.50
2019-03-29T20:37:56.536Z,22.10
2019-03-29T20:40:24.801Z,22.03
2019-03-29T20:42:53.107Z,22.50
2019-03-29T20:45:21.405Z,22.07
2019-03-29T20:47:52.763Z,20.15
2019-03-29T20:50:21.134Z,19.80
2019-03-29T20:52:52.644Z,20.45
2019-03-29T20:55:21.015Z,22.93
2019-03-29T20:57:51.510Z,25.35
2019-03-29T21:00:19.904Z,21.83
2019-03-29T21:02:48.321Z,74.15
2019-03-29T21:05:16.700Z,26.03
2019-03-29T21:07:46.029Z,20.88
2019-03-29T21:10:14.447Z,29.12
2019-03-29T21:12:42.810Z,27.27
2019-03-29T21:15:11.225Z,23.15
2019-03-29T21:17:39.718Z,23.65
2019-03-29T21:20:08.352Z,24.63
2019-03-29T21:22:36.971Z,23.92
2019-03-29T21:25:05.433Z,24.75
2019-03-29T21:27:33.739Z,23.57
2019-03-29T21:30:02.315Z,23.52
2019-03-29T21:32:30.632Z,24.92
2019-03-29T21:34:59.014Z,21.68
2019-03-29T21:37:27.284Z,24.90
2019-03-29T21:39:55.598Z,25.15
2019-03-29T21:42:23.861Z,27.75
2019-03-29T21:44:52.141Z,26.48
2019-03-29T21:47:20.436Z,21.33
2019-03-29T21:49:48.834Z,23.12
2019-03-29T21:52:20.441Z,23.12
2019-03-29T21:54:48.769Z,26.87
2019-03-29T21:57:17.037Z,29.63
2019-03-29T21:59:45.423Z,25.43
2019-03-29T22:02:13.833Z,27.40
2019-03-29T22:04:42.214Z,29.80
2019-03-29T22:07:10.581Z,27.90
2019-03-29T22:09:38.912Z,33.30
2019-03-29T22:12:07.244Z,26.62
2019-03-29T22:14:35.618Z,22.90
2019-03-29T22:17:03.934Z,24.98
2019-03-29T22:19:32.152Z,22.17
2019-03-29T22:22:00.505Z,24.20
2019-03-29T22:24:28.777Z,24.12
2019-03-29T22:26:57.085Z,21.37
2019-03-29T22:29:25.345Z,24.45
2019-03-29T22:31:53.640Z,22.50
2019-03-29T22:34:22.058Z,27.48
2019-03-29T22:36:50.516Z,20.55
2019-03-29T22:39:18.826Z,22.67
2019-03-29T22:41:47.183Z,23.57
2019-03-29T22:44:15.513Z,21.60
2019-03-29T22:46:43.793Z,23.98
2019-03-29T22:49:12.161Z,25.75
2019-03-29T22:51:40.438Z,23.70
2019-03-29T22:54:08.707Z,23.80
2019-03-29T22:56:37.006Z,20.23
2019-03-29T22:59:05.259Z,26.10
2019-03-29T23:01:35.041Z,24.32
2019-03-29T23:04:03.729Z,24.95
2019-03-29T23:06:32.186Z,27.20
2019-03-29T23:09:00.478Z,24.52
2019-03-29T23:11:28.810Z,24.75
2019-03-29T23:13:57.093Z,24.57
2019-03-29T23:16:25.409Z,27.93
2019-03-29T23:19:05.816Z,28.35
2019-03-29T23:21:23.634Z,29.57
2019-03-29T23:23:51.930Z,34.53
2019-03-29T23:26:20.204Z,30.43
2019-03-29T23:28:48.528Z,29.37
2019-03-29T23:31:16.831Z,31.23
2019-03-29T23:33:45.091Z,27.00
2019-03-29T23:36:13.378Z,22.05
2019-03-29T23:38:41.635Z,25.85
2019-03-29T23:41:09.926Z,23.07
2019-03-29T23:43:38.227Z,20.30
2019-03-29T23:46:06.595Z,23.05
2019-03-29T23:48:34.989Z,24.07
2019-03-29T23:51:03.208Z,24.45
2019-03-29T23:53:31.480Z,22.82
2019-03-29T23:55:59.725Z,20.25
2019-03-29T23:58:28.007Z,19.82
